createdAt,value
2018-11-28T00:00:14.941Z,2.92
2018-11-28T00:02:43.450Z,2.91
2018-11-28T00:05:13.198Z,2.84
2018-11-28T00:07:42.162Z,2.76
2018-11-28T00:10:12.639Z,2.70
2018-11-28T00:12:41.516Z,2.65
2018-11-28T00:15:11.452Z,2.60
2018-11-28T00:17:39.955Z,2.58
2018-11-28T00:20:12.628Z,2.58
2018-11-28T00:22:41.223Z,2.61
2018-11-28T00:25:10.627Z,2.68
2018-11-28T00:27:39.156Z,2.70
2018-11-28T00:30:10.333Z,2.77
2018-11-28T00:32:38.832Z,2.80
2018-11-28T00:35:08.773Z,2.78
2018-11-28T00:37:37.277Z,2.74
2018-11-28T00:40:06.382Z,2.75
2018-11-28T00:42:34.935Z,2.67
2018-11-28T00:45:03.434Z,2.61
2018-11-28T00:47:31.938Z,2.57
2018-11-28T00:50:00.427Z,2.55
2018-11-28T00:52:28.950Z,2.53
2018-11-28T00:54:57.470Z,2.50
2018-11-28T00:57:26.019Z,2.49
2018-11-28T00:59:54.544Z,2.51
2018-11-28T01:02:23.060Z,2.47
2018-11-28T01:04:51.556Z,2.43
2018-11-28T01:07:20.073Z,2.44
2018-11-28T01:09:48.557Z,2.45
2018-11-28T01:12:17.094Z,2.41
2018-11-28T01:14:45.593Z,2.39
2018-11-28T01:17:14.105Z,2.38
2018-11-28T01:19:42.621Z,2.39
2018-11-28T01:22:11.116Z,2.38
2018-11-28T01:24:39.629Z,2.37
2018-11-28T01:27:08.146Z,2.37
2018-11-28T01:29:36.663Z,2.34
2018-11-28T01:32:05.212Z,2.31
2018-11-28T01:34:33.714Z,2.30
2018-11-28T01:37:02.264Z,2.28
2018-11-28T01:39:30.767Z,2.30
2018-11-28T01:41:59.295Z,2.28
2018-11-28T01:44:27.813Z,2.28
2018-11-28T01:46:56.342Z,2.26
2018-11-28T01:49:24.854Z,2.32
2018-11-28T01:51:53.381Z,2.38
2018-11-28T01:54:21.885Z,2.45
2018-11-28T01:56:50.405Z,2.47
2018-11-28T01:59:18.917Z,2.42
2018-11-28T02:01:47.425Z,2.39
2018-11-28T02:04:15.926Z,2.37
2018-11-28T02:06:44.438Z,2.33
2018-11-28T02:09:12.949Z,2.32
2018-11-28T02:11:41.437Z,2.27
2018-11-28T02:14:09.974Z,2.27
2018-11-28T02:16:38.482Z,2.28
2018-11-28T02:19:07.049Z,2.28
2018-11-28T02:21:35.578Z,2.28
2018-11-28T02:24:04.104Z,2.26
2018-11-28T02:26:32.614Z,2.29
2018-11-28T02:29:01.113Z,2.31
2018-11-28T02:31:29.633Z,2.36
2018-11-28T02:33:58.187Z,2.34
2018-11-28T02:36:26.708Z,2.30
2018-11-28T02:38:55.208Z,2.24
2018-11-28T02:41:23.726Z,2.21
2018-11-28T02:43:52.241Z,2.19
2018-11-28T02:46:29.982Z,2.13
2018-11-28T02:48:58.533Z,2.02
2018-11-28T02:51:27.058Z,1.95
2018-11-28T02:53:55.587Z,1.92
2018-11-28T02:56:24.093Z,1.85
2018-11-28T02:58:52.604Z,1.81
2018-11-28T03:01:21.113Z,1.79
2018-11-28T03:03:49.645Z,1.77
2018-11-28T03:06:18.151Z,1.80
2018-11-28T03:08:46.643Z,1.86
2018-11-28T03:11:15.145Z,1.93
2018-11-28T03:13:43.654Z,2.05
2018-11-28T03:16:18.820Z,2.03
2018-11-28T03:18:47.911Z,2.00
2018-11-28T03:21:16.548Z,2.01
2018-11-28T03:23:45.112Z,1.99
2018-11-28T03:26:13.624Z,1.97
2018-11-28T03:28:42.110Z,1.93
2018-11-28T03:31:10.638Z,1.87
2018-11-28T03:33:39.159Z,1.88
2018-11-28T03:36:07.693Z,1.85
2018-11-28T03:38:36.221Z,1.82
2018-11-28T03:41:04.739Z,1.81
2018-11-28T03:43:33.240Z,1.84
2018-11-28T03:46:01.752Z,1.85
2018-11-28T03:48:30.253Z,1.85
2018-11-28T03:51:00.507Z,1.82
2018-11-28T03:53:27.371Z,1.77
2018-11-28T03:55:55.903Z,1.77
2018-11-28T03:58:24.443Z,1.76
2018-11-28T04:00:52.951Z,1.76
2018-11-28T04:03:21.478Z,1.76
2018-11-28T04:05:49.966Z,1.74
2018-11-28T04:08:18.467Z,1.73
2018-11-28T04:10:47.002Z,1.70
2018-11-28T04:13:15.493Z,1.66
2018-11-28T04:15:44.037Z,1.63
2018-11-28T04:18:12.552Z,1.61
2018-11-28T04:20:41.046Z,1.58
2018-11-28T04:23:09.538Z,1.57
2018-11-28T04:25:38.049Z,1.54
2018-11-28T04:28:06.559Z,1.50
2018-11-28T04:30:35.130Z,1.50
2018-11-28T04:33:03.612Z,1.48
2018-11-28T04:35:32.123Z,1.44
2018-11-28T04:38:00.625Z,1.41
2018-11-28T04:40:29.156Z,1.41
2018-11-28T04:42:57.665Z,1.40
2018-11-28T04:45:26.221Z,1.39
2018-11-28T04:47:55.638Z,1.37
2018-11-28T04:50:24.161Z,1.36
2018-11-28T04:52:52.678Z,1.33
2018-11-28T04:55:21.450Z,1.32
2018-11-28T04:57:50.141Z,1.31
2018-11-28T05:00:20.727Z,1.30
2018-11-28T05:02:49.400Z,1.29
2018-11-28T05:05:18.082Z,1.29
2018-11-28T05:07:47.458Z,1.27
2018-11-28T05:10:17.686Z,1.24
2018-11-28T05:12:46.269Z,1.24
2018-11-28T05:15:16.869Z,1.23
2018-11-28T05:17:46.515Z,1.21
2018-11-28T05:20:15.987Z,1.19
2018-11-28T05:22:44.495Z,1.18
2018-11-28T05:25:14.549Z,1.18
2018-11-28T05:27:43.055Z,1.17
2018-11-28T05:30:15.740Z,1.21
2018-11-28T05:32:44.241Z,1.20
2018-11-28T05:35:23.647Z,1.20
2018-11-28T05:37:52.161Z,1.23
2018-11-28T05:40:21.719Z,1.22
2018-11-28T05:42:50.228Z,1.23
2018-11-28T05:45:18.785Z,1.24
2018-11-28T05:47:47.307Z,1.24
2018-11-28T05:50:16.958Z,1.24
2018-11-28T05:52:45.479Z,1.22
2018-11-28T05:55:14.834Z,1.20
2018-11-28T05:57:44.098Z,1.20
2018-11-28T06:00:43.760Z,1.20
2018-11-28T06:03:13.182Z,1.17
2018-11-28T06:05:42.453Z,1.18
2018-11-28T06:08:10.961Z,1.20
2018-11-28T06:10:39.471Z,1.21
2018-11-28T06:13:08.027Z,1.21
2018-11-28T06:15:36.601Z,1.19
2018-11-28T06:18:05.144Z,1.16
2018-11-28T06:20:33.717Z,1.18
2018-11-28T06:23:02.192Z,1.18
2018-11-28T06:25:30.719Z,1.16
2018-11-28T06:27:59.229Z,1.15
2018-11-28T06:30:27.745Z,1.18
2018-11-28T06:32:56.257Z,1.18
2018-11-28T06:35:24.759Z,1.16
2018-11-28T06:37:53.286Z,1.37
2018-11-28T06:40:24.275Z,1.16
2018-11-28T06:42:50.374Z,1.14
2018-11-28T06:45:21.125Z,1.13
2018-11-28T06:47:49.655Z,1.11
2018-11-28T06:50:19.122Z,1.10
2018-11-28T06:52:49.694Z,1.32
2018-11-28T06:55:19.461Z,1.46
2018-11-28T06:57:47.982Z,1.47
2018-11-28T07:00:23.528Z,1.40
2018-11-28T07:02:53.798Z,1.43
2018-11-28T07:05:23.118Z,1.11
2018-11-28T07:07:51.933Z,1.07
2018-11-28T07:10:21.408Z,1.05
2018-11-28T07:12:49.910Z,1.03
2018-11-28T07:15:19.731Z,1.04
2018-11-28T07:17:48.255Z,1.09
2018-11-28T07:20:17.303Z,1.09
2018-11-28T07:22:45.893Z,1.10
2018-11-28T07:25:15.491Z,1.12
2018-11-28T07:27:45.336Z,1.13
2018-11-28T07:30:21.444Z,1.16
2018-11-28T07:32:51.273Z,1.18
2018-11-28T07:35:19.892Z,1.22
2018-11-28T07:37:48.413Z,1.24
2018-11-28T07:40:22.038Z,1.27
2018-11-28T07:43:09.664Z,1.29
2018-11-28T07:45:39.541Z,1.32
2018-11-28T07:48:08.034Z,1.32
2018-11-28T07:50:36.598Z,1.36
2018-11-28T07:53:05.226Z,1.40
2018-11-28T07:55:33.747Z,1.42
2018-11-28T07:58:02.239Z,1.45
2018-11-28T08:00:30.817Z,1.48
2018-11-28T08:02:59.344Z,1.50
2018-11-28T08:05:27.868Z,1.54
2018-11-28T08:07:56.365Z,1.56
2018-11-28T08:10:25.855Z,1.57
2018-11-28T08:12:55.435Z,1.57
2018-11-28T08:15:23.970Z,1.59
2018-11-28T08:17:52.555Z,1.62
2018-11-28T08:20:21.089Z,1.67
2018-11-28T08:22:49.587Z,1.71
2018-11-28T08:25:18.443Z,1.71
2018-11-28T08:27:48.053Z,1.74
2018-11-28T08:30:17.794Z,1.79
2018-11-28T08:32:46.312Z,1.87
2018-11-28T08:35:14.882Z,1.95
2018-11-28T08:37:43.373Z,2.00
2018-11-28T08:40:14.053Z,2.07
2018-11-28T08:42:42.605Z,2.14
2018-11-28T08:45:12.825Z,2.18
2018-11-28T08:47:41.322Z,2.27
2018-11-28T08:50:12.505Z,2.32
2018-11-28T08:52:41.010Z,2.39
2018-11-28T08:55:11.089Z,2.39
2018-11-28T08:57:39.593Z,2.35
2018-11-28T09:00:15.433Z,2.37
2018-11-28T09:02:44.157Z,2.41
2018-11-28T09:05:13.299Z,2.44
2018-11-28T09:07:41.806Z,2.45
2018-11-28T09:10:13.468Z,2.49
2018-11-28T09:12:41.985Z,2.45
2018-11-28T09:15:21.372Z,2.41
2018-11-28T09:17:49.860Z,2.44
2018-11-28T09:20:18.380Z,2.44
2018-11-28T09:22:46.877Z,2.47
2018-11-28T09:25:16.355Z,2.51
2018-11-28T09:27:49.767Z,2.54
2018-11-28T09:30:19.032Z,2.62
2018-11-28T09:32:48.334Z,2.68
2018-11-28T09:35:17.059Z,2.74
2018-11-28T09:37:46.180Z,2.84
2018-11-28T09:40:28.637Z,2.92
2018-11-28T09:42:59.217Z,3.00
2018-11-28T09:45:27.943Z,3.11
2018-11-28T09:47:56.432Z,3.21
2018-11-28T09:50:25.980Z,3.32
2018-11-28T09:52:54.532Z,3.42
2018-11-28T09:55:24.910Z,3.54
2018-11-28T09:57:53.485Z,3.68
2018-11-28T10:00:27.132Z,3.78
2018-11-28T10:02:56.915Z,3.90
2018-11-28T10:05:27.761Z,3.97
2018-11-28T10:07:56.317Z,4.06
2018-11-28T10:10:24.822Z,4.12
2018-11-28T10:12:53.362Z,4.14
2018-11-28T10:15:24.042Z,4.22
2018-11-28T10:17:52.581Z,4.27
2018-11-28T10:20:21.206Z,4.27
2018-11-28T10:22:50.803Z,4.23
2018-11-28T10:25:20.316Z,4.29
2018-11-28T10:27:51.126Z,4.29
2018-11-28T10:30:21.749Z,4.18
2018-11-28T10:32:50.982Z,4.21
2018-11-28T10:35:19.491Z,4.27
2018-11-28T10:37:47.998Z,4.29
2018-11-28T10:40:18.279Z,4.35
2018-11-28T10:42:47.990Z,4.42
2018-11-28T10:45:17.721Z,4.42
2018-11-28T10:47:46.213Z,4.48
2018-11-28T10:50:15.446Z,4.47
2018-11-28T10:52:44.024Z,4.48
2018-11-28T10:55:19.410Z,4.48
2018-11-28T10:57:47.914Z,4.37
2018-11-28T11:00:29.554Z,4.36
2018-11-28T11:03:03.250Z,4.34
2018-11-28T11:05:37.106Z,4.37
2018-11-28T11:08:11.191Z,4.42
2018-11-28T11:10:44.911Z,4.47
2018-11-28T11:13:18.482Z,4.48
2018-11-28T11:15:52.281Z,4.54
2018-11-28T11:18:20.970Z,4.62
2018-11-28T11:20:49.478Z,4.72
2018-11-28T11:23:17.981Z,4.84
2018-11-28T11:25:46.476Z,4.92
2018-11-28T11:28:15.000Z,5.01
2018-11-28T11:30:43.619Z,5.08
2018-11-28T11:33:12.166Z,5.15
2018-11-28T11:35:41.002Z,5.19
2018-11-28T11:38:09.552Z,5.25
2018-11-28T11:40:38.040Z,5.27
2018-11-28T11:43:06.790Z,5.31
2018-11-28T11:45:35.347Z,5.31
2018-11-28T11:48:03.846Z,5.28
2018-11-28T11:50:32.363Z,5.23
2018-11-28T11:53:00.853Z,5.09
2018-11-28T11:55:29.366Z,4.94
2018-11-28T11:57:57.912Z,4.96
2018-11-28T12:00:27.237Z,4.94
2018-11-28T12:03:01.362Z,4.87
2018-11-28T12:05:29.866Z,4.83
2018-11-28T12:07:58.365Z,4.86
2018-11-28T12:10:26.873Z,4.84
2018-11-28T12:12:55.398Z,4.81
2018-11-28T12:15:23.897Z,4.72
2018-11-28T12:17:52.563Z,4.65
2018-11-28T12:20:27.890Z,4.49
2018-11-28T12:22:56.633Z,4.26
2018-11-28T12:25:25.561Z,3.99
2018-11-28T12:27:54.182Z,4.00
2018-11-28T12:30:22.805Z,3.83
2018-11-28T12:32:51.426Z,3.77
2018-11-28T12:35:20.450Z,3.68
2018-11-28T12:37:49.076Z,3.54
2018-11-28T12:40:17.970Z,3.44
2018-11-28T12:42:50.156Z,3.34
2018-11-28T12:45:19.942Z,3.19
2018-11-28T12:47:48.894Z,3.14
2018-11-28T12:50:20.182Z,3.20
2018-11-28T12:52:48.927Z,3.15
2018-11-28T12:55:18.409Z,3.19
2018-11-28T12:57:47.164Z,3.22
2018-11-28T13:00:16.879Z,3.15
2018-11-28T13:02:45.517Z,3.10
2018-11-28T13:05:17.237Z,3.03
2018-11-28T13:07:45.892Z,2.99
2018-11-28T13:10:20.827Z,2.94
2018-11-28T13:12:51.166Z,2.95
2018-11-28T13:15:21.336Z,2.90
2018-11-28T13:17:49.979Z,2.86
2018-11-28T13:20:19.743Z,2.84
2018-11-28T13:22:49.869Z,2.81
2018-11-28T13:25:20.294Z,2.81
2018-11-28T13:27:48.848Z,2.74
2018-11-28T13:30:19.501Z,2.73
2018-11-28T13:32:48.721Z,2.68
2018-11-28T13:35:32.980Z,2.71
2018-11-28T13:38:07.806Z,2.69
2018-11-28T13:40:37.253Z,2.64
2018-11-28T13:43:06.265Z,2.53
2018-11-28T13:45:38.583Z,2.40
2018-11-28T13:48:07.224Z,2.37
2018-11-28T13:50:35.918Z,2.32
2018-11-28T13:53:09.120Z,2.30
2018-11-28T13:55:42.985Z,2.23
2018-11-28T13:58:11.562Z,2.25
2018-11-28T14:00:40.153Z,2.23
2018-11-28T14:03:08.813Z,2.23
2018-11-28T14:05:37.482Z,2.26
2018-11-28T14:08:06.661Z,2.17
2018-11-28T14:10:35.373Z,2.09
2018-11-28T14:13:04.125Z,1.99
2018-11-28T14:15:32.839Z,1.96
2018-11-28T14:18:04.300Z,1.89
2018-11-28T14:20:32.964Z,1.80
2018-11-28T14:23:01.494Z,1.68
2018-11-28T14:25:30.218Z,1.61
2018-11-28T14:27:58.901Z,1.50
2018-11-28T14:30:27.385Z,1.44
2018-11-28T14:32:55.868Z,1.40
2018-11-28T14:35:24.608Z,1.42
2018-11-28T14:37:53.430Z,1.41
2018-11-28T14:40:23.018Z,1.39
2018-11-28T14:42:54.116Z,1.42
2018-11-28T14:45:22.866Z,1.42
2018-11-28T14:47:52.234Z,1.42
2018-11-28T14:50:23.841Z,1.32
2018-11-28T14:52:53.229Z,1.27
2018-11-28T14:55:22.898Z,1.28
2018-11-28T14:57:51.657Z,1.25
2018-11-28T15:00:25.979Z,1.28
2018-11-28T15:02:55.982Z,1.31
2018-11-28T15:06:34.649Z,1.25
2018-11-28T15:09:08.299Z,1.32
2018-11-28T15:11:36.813Z,1.38
2018-11-28T15:14:05.320Z,1.43
2018-11-28T15:16:33.849Z,1.35
2018-11-28T15:19:02.379Z,1.29
2018-11-28T15:21:31.028Z,1.30
2018-11-28T15:23:59.815Z,1.34
2018-11-28T15:26:28.585Z,1.32
2018-11-28T15:28:57.278Z,1.23
2018-11-28T15:31:25.854Z,1.23
2018-11-28T15:33:54.694Z,1.17
2018-11-28T15:36:23.378Z,1.12
2018-11-28T15:38:52.152Z,1.17
2018-11-28T15:41:21.097Z,1.16
2018-11-28T15:43:49.751Z,1.22
2018-11-28T15:46:18.469Z,1.16
2018-11-28T15:48:47.112Z,1.19
2018-11-28T15:51:15.636Z,1.12
2018-11-28T15:53:44.193Z,1.08
2018-11-28T15:56:12.814Z,1.05
2018-11-28T15:58:41.326Z,1.02
2018-11-28T16:01:09.875Z,0.95
2018-11-28T16:03:38.373Z,1.00
2018-11-28T16:06:07.884Z,0.99
2018-11-28T16:08:36.402Z,1.07
2018-11-28T16:11:08.426Z,0.96
2018-11-28T16:13:37.025Z,0.90
2018-11-28T16:16:06.400Z,1.00
2018-11-28T16:18:34.918Z,1.05
2018-11-28T16:21:03.414Z,1.15
2018-11-28T16:23:31.923Z,1.18
2018-11-28T16:26:00.427Z,1.20
2018-11-28T16:28:28.929Z,1.13
2018-11-28T16:30:57.458Z,1.15
2018-11-28T16:33:25.970Z,1.21
2018-11-28T16:35:54.492Z,1.12
2018-11-28T16:38:23.019Z,1.10
2018-11-28T16:40:51.514Z,1.11
2018-11-28T16:43:20.060Z,1.16
2018-11-28T16:45:48.577Z,1.17
2018-11-28T16:48:17.091Z,1.13
2018-11-28T16:50:45.594Z,1.18
2018-11-28T16:53:14.123Z,1.24
2018-11-28T16:55:42.642Z,1.29
2018-11-28T16:58:11.150Z,1.30
2018-11-28T17:00:41.307Z,1.31
2018-11-28T17:03:09.811Z,1.35
2018-11-28T17:05:38.510Z,1.39
2018-11-28T17:08:08.671Z,1.34
2018-11-28T17:10:37.190Z,1.28
2018-11-28T17:13:06.068Z,1.35
2018-11-28T17:15:34.558Z,1.40
2018-11-28T17:18:03.064Z,1.35
2018-11-28T17:20:32.567Z,1.33
2018-11-28T17:23:01.061Z,1.29
2018-11-28T17:25:30.808Z,1.28
2018-11-28T17:27:59.437Z,1.28
2018-11-28T17:30:29.014Z,1.28
2018-11-28T17:32:57.560Z,1.27
2018-11-28T17:35:26.054Z,1.32
2018-11-28T17:37:54.710Z,1.35
2018-11-28T17:40:26.122Z,1.40
2018-11-28T17:42:55.834Z,1.41
2018-11-28T17:45:24.534Z,1.34
2018-11-28T17:47:53.141Z,1.33
2018-11-28T17:50:23.626Z,1.27
2018-11-28T17:53:04.502Z,1.19
2018-11-28T17:55:35.769Z,1.23
2018-11-28T17:58:04.267Z,1.20
2018-11-28T18:00:32.803Z,1.12
2018-11-28T18:03:01.512Z,1.22
2018-11-28T18:05:30.044Z,1.26
2018-11-28T18:07:58.569Z,1.29
2018-11-28T18:10:27.112Z,1.29
2018-11-28T18:13:30.611Z,1.32
2018-11-28T18:15:59.136Z,1.29
2018-11-28T18:18:27.629Z,1.33
2018-11-28T18:20:56.151Z,1.25
2018-11-28T18:23:24.690Z,1.24
2018-11-28T18:25:53.235Z,1.14
2018-11-28T18:28:21.759Z,1.07
2018-11-28T18:30:50.258Z,1.09
2018-11-28T18:33:18.759Z,1.01
2018-11-28T18:35:47.261Z,0.90
2018-11-28T18:38:15.778Z,0.78
2018-11-28T18:40:44.294Z,0.64
2018-11-28T18:43:13.370Z,0.67
2018-11-28T18:45:50.349Z,0.67
2018-11-28T18:48:18.861Z,0.61
2018-11-28T18:50:47.430Z,0.52
2018-11-28T18:53:16.005Z,0.49
2018-11-28T18:55:44.552Z,0.47
2018-11-28T18:58:14.409Z,0.43
2018-11-28T19:00:42.944Z,0.40
2018-11-28T19:03:11.481Z,0.37
2018-11-28T19:05:40.015Z,0.37
2018-11-28T19:08:08.905Z,0.41
2018-11-28T19:10:37.449Z,0.38
2018-11-28T19:13:05.988Z,0.36
2018-11-28T19:15:34.502Z,0.43
2018-11-28T19:18:03.877Z,0.51
2018-11-28T19:20:32.422Z,0.59
2018-11-28T19:23:00.917Z,0.65
2018-11-28T19:25:29.950Z,0.43
2018-11-28T19:27:58.475Z,0.74
2018-11-28T19:30:35.304Z,0.76
2018-11-28T19:33:03.831Z,0.84
2018-11-28T19:35:32.339Z,0.85
2018-11-28T19:38:00.932Z,0.83
2018-11-28T19:40:39.466Z,0.78
2018-11-28T19:43:07.982Z,0.86
2018-11-28T19:45:36.526Z,0.88
2018-11-28T19:48:05.374Z,0.89
2018-11-28T19:50:34.959Z,0.77
2018-11-28T19:53:03.475Z,0.84
2018-11-28T19:55:32.007Z,0.91
2018-11-28T19:58:00.507Z,0.91
2018-11-28T20:00:29.032Z,0.89
2018-11-28T20:02:57.534Z,0.87
2018-11-28T20:05:26.044Z,0.88
2018-11-28T20:07:54.682Z,0.92
2018-11-28T20:10:23.759Z,0.94
2018-11-28T20:12:52.352Z,0.94
2018-11-28T20:15:23.077Z,1.01
2018-11-28T20:17:51.800Z,0.94
2018-11-28T20:20:20.871Z,0.99
2018-11-28T20:22:49.491Z,1.03
2018-11-28T20:25:19.074Z,1.06
2018-11-28T20:27:49.905Z,1.09
2018-11-28T20:30:19.997Z,1.09
2018-11-28T20:32:48.498Z,1.06
2018-11-28T20:35:17.024Z,1.08
2018-11-28T20:37:45.573Z,1.07
2018-11-28T20:40:16.133Z,1.05
2018-11-28T20:42:46.946Z,1.07
2018-11-28T20:45:15.570Z,1.05
2018-11-28T20:47:44.105Z,1.00
2018-11-28T20:50:24.425Z,0.99
2018-11-28T20:52:55.105Z,0.93
2018-11-28T20:55:23.296Z,0.94
2018-11-28T20:57:51.838Z,0.96
2018-11-28T21:00:21.893Z,0.93
2018-11-28T21:02:51.137Z,-0.16
2018-11-28T21:05:19.694Z,1.09
2018-11-28T21:07:48.217Z,1.10
2018-11-28T21:10:22.290Z,1.06
2018-11-28T21:12:50.795Z,1.01
2018-11-28T21:15:19.307Z,1.00
2018-11-28T21:17:48.053Z,0.99
2018-11-28T21:20:20.185Z,1.05
2018-11-28T21:22:54.998Z,1.08
2018-11-28T21:25:23.507Z,1.05
2018-11-28T21:27:52.022Z,0.94
2018-11-28T21:30:21.418Z,0.99
2018-11-28T21:32:51.159Z,0.99
2018-11-28T21:35:21.615Z,0.94
2018-11-28T21:37:50.122Z,1.02
2018-11-28T21:40:18.632Z,1.03
2018-11-28T21:42:47.512Z,1.06
2018-11-28T21:45:17.239Z,1.06
2018-11-28T21:47:45.766Z,1.07
2018-11-28T21:50:16.073Z,1.03
2018-11-28T21:52:44.658Z,1.04
2018-11-28T21:55:18.160Z,0.96
2018-11-28T21:57:46.685Z,1.02
2018-11-28T22:00:29.808Z,1.01
2018-11-28T22:02:58.328Z,1.02
2018-11-28T22:05:27.898Z,0.99
2018-11-28T22:07:56.517Z,1.01
2018-11-28T22:10:26.357Z,1.05
2018-11-28T22:12:56.281Z,1.06
2018-11-28T22:15:24.884Z,-0.83
2018-11-28T22:17:55.541Z,1.11
2018-11-28T22:20:24.773Z,1.14
2018-11-28T22:22:53.465Z,1.14
2018-11-28T22:25:24.762Z,1.10
2018-11-28T22:27:53.324Z,1.12
2018-11-28T22:30:24.766Z,1.10
2018-11-28T22:32:53.303Z,1.11
2018-11-28T22:35:21.817Z,1.04
2018-11-28T22:37:50.319Z,1.02
2018-11-28T22:40:24.049Z,1.04
2018-11-28T22:42:52.550Z,1.04
2018-11-28T22:45:25.125Z,1.01
2018-11-28T22:47:53.726Z,1.06
2018-11-28T22:50:22.274Z,1.08
2018-11-28T22:52:50.778Z,1.00
2018-11-28T22:55:19.474Z,1.03
2018-11-28T22:57:47.989Z,1.04
2018-11-28T23:00:17.538Z,1.06
2018-11-28T23:02:54.324Z,1.03
2018-11-28T23:05:24.526Z,0.94
2018-11-28T23:07:53.018Z,0.98
2018-11-28T23:10:21.546Z,0.96
2018-11-28T23:12:50.125Z,1.01
2018-11-28T23:15:18.646Z,1.06
2018-11-28T23:17:47.177Z,1.11
2018-11-28T23:20:15.722Z,1.14
2018-11-28T23:22:44.212Z,1.10
2018-11-28T23:25:13.090Z,1.08
2018-11-28T23:27:41.584Z,1.03
2018-11-28T23:30:14.431Z,1.06
2018-11-28T23:32:42.951Z,1.08
2018-11-28T23:35:11.973Z,1.07
2018-11-28T23:37:41.484Z,1.07
2018-11-28T23:40:26.791Z,1.06
2018-11-28T23:42:55.889Z,1.03
2018-11-28T23:45:24.960Z,0.99
2018-11-28T23:47:53.492Z,0.93
2018-11-28T23:50:22.715Z,0.91
2018-11-28T23:52:52.364Z,0.94
2018-11-28T23:55:21.745Z,0.97
2018-11-28T23:57:50.264Z,1.00
